Lanesville, New York
Current Conditions -  °F | °C
As of 5:18 PM on Thursday 27 Nov 2014 (Local Time) from KPOU Reporting Station
Haze Haze  
Wind Chill: 32°   Ceiling: 3100
Heat Index: 32°   Visibility: 5mi
Dew Point: 29°   Wind: 3mph
Humidity: 88%   Direction: 300°WNW
Pressure: 30.01"   Gusts: NA
Location:  42.14°N, 74.27°W
Report Text: KPOU 272218Z 30003KT 5SM BR FEW016 OVC031 00/M02 A3001 RMK AO2 SNB2155E15 P0000 T00001017
Loading
Personal Weather Stations






























Interactive Weather Map New forecast layout! Learn more

10-Day Weather Forecast

Advertisements
Track Severe Weather on mobile